Arminto, WY (82630)

7:28 AM MDT on May 27, 2017 (GMT -0600)
Natrona County International | | Change Station

Elev 5348 ft 42.91 °N, 106.46 °W | Updated 35 minutes ago

Partly Cloudy
Partly Cloudy
44 °F
Feels Like 41 °F
N
6
Wind Variable Wind from SW

Today
High -- | Low -- °F
--% Chance of Precip.
Yesterday
High -- | Low -- °F
Precip. -- in
Pressure 30.07 in
Visibility 10.0 miles
Clouds Few 1800 ft
Mostly Cloudy 3600 ft
Overcast 5000 ft
Windchill 41 °F
Dew Point 42 °F
Humidity 93%
Rainfall 0.00 in
Snow Depth Not available.
5:35 AM 8:38 PM
Waxing Crescent, 5% visible
METAR KCPR 271253Z 22005KT 10SM FEW018 BKN036 OVC050 07/06 A3010 RMK AO2 SLP181 T00670056 $
Pressure 30.07 in
Visibility 10.0 miles
Clouds Few 1800 ft
Mostly Cloudy 3600 ft
Overcast 5000 ft
Windchill 41 °F
Dew Point 42 °F
Humidity 93%
Rainfall 0.00 in
Snow Depth Not available.
5:35 AM 8:38 PM
Waxing Crescent, 5% visible
METAR KCPR 271253Z 22005KT 10SM FEW018 BKN036 OVC050 07/06 A3010 RMK AO2 SLP181 T00670056 $

Get Severe Weather Alerts

Thanks for signing up!

Be on the lookout for a verification email in your inbox.

You'll start receiving the daily forecast at 6 AM.

×

10-Day Weather Forecast

Almanac

Astronomy

May. 27, 2017 Rise Set
Actual Time
Civil Twilight
Nautical Twilight
Astronomical Twilight
Moon
Length of Visible Light
Length of Day
Tomorrow will be .
, % of the Moon is Illuminated

Today's Extremes

State Highs State Lows

Community

WunderPhotos

Category 6

Welcome to Category 6. This is the collective home for Weather Underground's featured writeups by Dr. Jeff Masters (right), Bob Henson (left), Chris Burt, and other regular contributors.

Nearby

Air Quality

  Air Quality AQ Index Pollutant
Not available.

Snow Depth

Station Depth Elevation

Earthquake Activity

City Distance Mag. Time & Date
Minimum magnitude displayed is 2.5.

Coastal Water Temperatures

Place Temperature

Stations

Nearby Weather Stations

Station Location Temp. Windchill Dew Point Humidity Wind Precip. Elev Updated Type
                   

Watches & Warnings

There are currently no watches in effect.